Terminal Aerodrome Forecast
Issued by NWS Tampa Bay Area, FL

Home | Current Version | Previous Version | Text Only | Print | Product List | Glossary On
Versions: 1 2 3 4 5 6 7 8 9 10 11 12
000
FTUS42 KTBW 302330
TAFSRQ
TAF
KSRQ 302330Z 0100/0124 29009KT P6SM FEW030 SCT250
     FM010300 VRB04KT P6SM FEW020 SCT200
     FM011600 24007KT P6SM SCT030 SCT250=

USA.gov is the U.S. government's official web portal to all federal, state and local government web resources and services.